sensor_id;sensor_type;location;lat;lon;timestamp;temperature;humidity
37300;DHT22;23184;51.902;12.836;2023-04-24T00:02:12;11.70;99.90
37300;DHT22;23184;51.902;12.836;2023-04-24T00:04:38;11.70;99.90
37300;DHT22;23184;51.902;12.836;2023-04-24T00:07:07;11.60;99.90
37300;DHT22;23184;51.902;12.836;2023-04-24T00:09:33;11.60;99.90
37300;DHT22;23184;51.902;12.836;2023-04-24T00:11:58;11.60;99.90
37300;DHT22;23184;51.902;12.836;2023-04-24T00:14:25;11.60;99.90
37300;DHT22;23184;51.902;12.836;2023-04-24T00:16:50;11.60;99.90
37300;DHT22;23184;51.902;12.836;2023-04-24T00:19:16;11.60;99.90
37300;DHT22;23184;51.902;12.836;2023-04-24T00:21:41;11.60;99.90
37300;DHT22;23184;51.902;12.836;2023-04-24T00:24:07;11.60;99.90
37300;DHT22;23184;51.902;12.836;2023-04-24T00:26:34;11.60;99.90
37300;DHT22;23184;51.902;12.836;2023-04-24T00:29:00;11.70;99.90
37300;DHT22;23184;51.902;12.836;2023-04-24T00:31:25;11.70;99.90
37300;DHT22;23184;51.902;12.836;2023-04-24T00:33:51;11.70;99.90
37300;DHT22;23184;51.902;12.836;2023-04-24T00:36:16;11.70;99.90
37300;DHT22;23184;51.902;12.836;2023-04-24T00:38:42;11.70;99.90
37300;DHT22;23184;51.902;12.836;2023-04-24T00:41:07;11.70;99.90
37300;DHT22;23184;51.902;12.836;2023-04-24T00:43:33;11.70;99.90
37300;DHT22;23184;51.902;12.836;2023-04-24T00:45:58;11.80;99.90
37300;DHT22;23184;51.902;12.836;2023-04-24T00:48:26;11.80;99.90
37300;DHT22;23184;51.902;12.836;2023-04-24T00:50:52;11.80;99.90
37300;DHT22;23184;51.902;12.836;2023-04-24T00:53:18;11.80;99.90
37300;DHT22;23184;51.902;12.836;2023-04-24T00:55:44;11.90;99.90
37300;DHT22;23184;51.902;12.836;2023-04-24T00:58:10;11.90;99.90
37300;DHT22;23184;51.902;12.836;2023-04-24T01:00:35;11.90;99.90
37300;DHT22;23184;51.902;12.836;2023-04-24T01:03:04;11.90;99.90
37300;DHT22;23184;51.902;12.836;2023-04-24T01:05:31;11.90;99.90
37300;DHT22;23184;51.902;12.836;2023-04-24T01:07:58;11.90;99.90
37300;DHT22;23184;51.902;12.836;2023-04-24T01:10:25;11.90;99.90
37300;DHT22;23184;51.902;12.836;2023-04-24T01:12:53;11.90;99.90
37300;DHT22;23184;51.902;12.836;2023-04-24T01:15:18;11.90;99.90
37300;DHT22;23184;51.902;12.836;2023-04-24T01:17:44;11.80;99.90
37300;DHT22;23184;51.902;12.836;2023-04-24T01:20:10;11.90;99.90
37300;DHT22;23184;51.902;12.836;2023-04-24T01:22:36;11.80;99.90
37300;DHT22;23184;51.902;12.836;2023-04-24T01:25:02;11.80;99.90
37300;DHT22;23184;51.902;12.836;2023-04-24T01:27:28;11.80;99.90
37300;DHT22;23184;51.902;12.836;2023-04-24T01:29:54;11.80;99.90
37300;DHT22;23184;51.902;12.836;2023-04-24T01:32:20;11.80;99.90
37300;DHT22;23184;51.902;12.836;2023-04-24T01:34:46;11.80;99.90
37300;DHT22;23184;51.902;12.836;2023-04-24T01:37:12;11.80;99.90
37300;DHT22;23184;51.902;12.836;2023-04-24T01:39:37;11.80;99.90
37300;DHT22;23184;51.902;12.836;2023-04-24T01:42:04;11.80;99.90
37300;DHT22;23184;51.902;12.836;2023-04-24T01:44:30;11.70;99.90
37300;DHT22;23184;51.902;12.836;2023-04-24T01:46:56;11.80;99.90
37300;DHT22;23184;51.902;12.836;2023-04-24T01:49:21;11.70;99.90
37300;DHT22;23184;51.902;12.836;2023-04-24T01:51:47;11.70;99.90
37300;DHT22;23184;51.902;12.836;2023-04-24T01:54:13;11.70;99.90
37300;DHT22;23184;51.902;12.836;2023-04-24T01:56:42;11.60;99.90
37300;DHT22;23184;51.902;12.836;2023-04-24T01:59:10;11.60;99.90
37300;DHT22;23184;51.902;12.836;2023-04-24T02:01:36;11.60;99.90
37300;DHT22;23184;51.902;12.836;2023-04-24T02:04:02;11.60;99.90
37300;DHT22;23184;51.902;12.836;2023-04-24T02:06:28;11.50;99.90
37300;DHT22;23184;51.902;12.836;2023-04-24T02:08:53;11.50;99.90
37300;DHT22;23184;51.902;12.836;2023-04-24T02:11:19;11.50;99.90
37300;DHT22;23184;51.902;12.836;2023-04-24T02:13:44;11.50;99.90
37300;DHT22;23184;51.902;12.836;2023-04-24T02:16:10;11.50;99.90
37300;DHT22;23184;51.902;12.836;2023-04-24T02:18:36;11.50;99.90
37300;DHT22;23184;51.902;12.836;2023-04-24T02:21:01;11.50;99.90
37300;DHT22;23184;51.902;12.836;2023-04-24T02:23:27;11.50;99.90
37300;DHT22;23184;51.902;12.836;2023-04-24T02:25:53;11.50;99.90
37300;DHT22;23184;51.902;12.836;2023-04-24T02:28:18;11.50;99.90
37300;DHT22;23184;51.902;12.836;2023-04-24T02:30:44;11.50;99.90
37300;DHT22;23184;51.902;12.836;2023-04-24T02:33:11;11.50;99.90
37300;DHT22;23184;51.902;12.836;2023-04-24T02:35:36;11.50;99.90
37300;DHT22;23184;51.902;12.836;2023-04-24T02:38:02;11.50;99.90
37300;DHT22;23184;51.902;12.836;2023-04-24T02:40:29;11.50;99.90
37300;DHT22;23184;51.902;12.836;2023-04-24T02:42:55;11.50;99.90
37300;DHT22;23184;51.902;12.836;2023-04-24T02:45:21;11.50;99.90
37300;DHT22;23184;51.902;12.836;2023-04-24T02:47:46;11.40;99.90
37300;DHT22;23184;51.902;12.836;2023-04-24T02:50:11;11.40;99.90
37300;DHT22;23184;51.902;12.836;2023-04-24T02:52:37;11.40;99.90
37300;DHT22;23184;51.902;12.836;2023-04-24T02:55:03;11.00;99.90
37300;DHT22;23184;51.902;12.836;2023-04-24T02:57:28;10.90;99.90
37300;DHT22;23184;51.902;12.836;2023-04-24T02:59:54;10.70;99.90
37300;DHT22;23184;51.902;12.836;2023-04-24T03:02:19;10.60;99.90
37300;DHT22;23184;51.902;12.836;2023-04-24T03:04:46;10.50;99.90
37300;DHT22;23184;51.902;12.836;2023-04-24T03:07:13;10.40;99.90
37300;DHT22;23184;51.902;12.836;2023-04-24T03:09:40;10.50;99.90
37300;DHT22;23184;51.902;12.836;2023-04-24T03:12:05;10.50;99.90
37300;DHT22;23184;51.902;12.836;2023-04-24T03:14:31;10.40;99.90
37300;DHT22;23184;51.902;12.836;2023-04-24T03:16:57;10.40;99.90
37300;DHT22;23184;51.902;12.836;2023-04-24T03:19:22;10.50;99.90
37300;DHT22;23184;51.902;12.836;2023-04-24T03:21:48;10.50;99.90
37300;DHT22;23184;51.902;12.836;2023-04-24T03:24:14;10.40;99.90
37300;DHT22;23184;51.902;12.836;2023-04-24T03:26:39;10.40;99.90
37300;DHT22;23184;51.902;12.836;2023-04-24T03:29:05;10.50;99.90
37300;DHT22;23184;51.902;12.836;2023-04-24T03:31:30;10.40;99.90
37300;DHT22;23184;51.902;12.836;2023-04-24T03:33:55;10.30;99.90
37300;DHT22;23184;51.902;12.836;2023-04-24T03:36:21;10.30;99.90
37300;DHT22;23184;51.902;12.836;2023-04-24T03:38:46;10.30;99.90
37300;DHT22;23184;51.902;12.836;2023-04-24T03:41:12;10.30;99.90
37300;DHT22;23184;51.902;12.836;2023-04-24T03:43:37;10.20;99.90
37300;DHT22;23184;51.902;12.836;2023-04-24T03:46:03;10.20;99.90
37300;DHT22;23184;51.902;12.836;2023-04-24T03:48:29;10.30;99.90
37300;DHT22;23184;51.902;12.836;2023-04-24T03:50:55;10.40;99.90
37300;DHT22;23184;51.902;12.836;2023-04-24T03:53:20;10.40;99.90
37300;DHT22;23184;51.902;12.836;2023-04-24T03:55:46;10.40;99.90
37300;DHT22;23184;51.902;12.836;2023-04-24T03:58:11;10.50;99.90
37300;DHT22;23184;51.902;12.836;2023-04-24T04:00:39;10.50;99.90
37300;DHT22;23184;51.902;12.836;2023-04-24T04:03:05;10.50;99.90
37300;DHT22;23184;51.902;12.836;2023-04-24T04:05:31;10.50;99.90
37300;DHT22;23184;51.902;12.836;2023-04-24T04:07:56;10.60;99.90
37300;DHT22;23184;51.902;12.836;2023-04-24T04:10:22;10.50;99.90
37300;DHT22;23184;51.902;12.836;2023-04-24T04:12:47;10.50;99.90
37300;DHT22;23184;51.902;12.836;2023-04-24T04:15:13;10.50;99.90
37300;DHT22;23184;51.902;12.836;2023-04-24T04:17:39;10.40;99.90
37300;DHT22;23184;51.902;12.836;2023-04-24T04:20:05;10.30;99.90
37300;DHT22;23184;51.902;12.836;2023-04-24T04:22:34;10.20;99.90
37300;DHT22;23184;51.902;12.836;2023-04-24T04:25:00;10.20;99.90
37300;DHT22;23184;51.902;12.836;2023-04-24T04:27:25;10.20;99.90
37300;DHT22;23184;51.902;12.836;2023-04-24T04:29:51;10.20;99.90
37300;DHT22;23184;51.902;12.836;2023-04-24T04:32:17;10.40;99.90
37300;DHT22;23184;51.902;12.836;2023-04-24T04:34:43;10.30;99.90
37300;DHT22;23184;51.902;12.836;2023-04-24T04:37:10;10.30;99.90
37300;DHT22;23184;51.902;12.836;2023-04-24T04:39:38;10.30;99.90
37300;DHT22;23184;51.902;12.836;2023-04-24T04:42:03;10.40;99.90
37300;DHT22;23184;51.902;12.836;2023-04-24T04:44:29;10.50;99.90
37300;DHT22;23184;51.902;12.836;2023-04-24T04:46:56;10.50;99.90
37300;DHT22;23184;51.902;12.836;2023-04-24T04:49:22;10.60;99.90
37300;DHT22;23184;51.902;12.836;2023-04-24T04:51:49;10.60;99.90
37300;DHT22;23184;51.902;12.836;2023-04-24T04:54:16;10.60;99.90
37300;DHT22;23184;51.902;12.836;2023-04-24T04:56:41;10.60;99.90
37300;DHT22;23184;51.902;12.836;2023-04-24T04:59:07;10.50;99.90
37300;DHT22;23184;51.902;12.836;2023-04-24T05:01:32;10.60;99.90
37300;DHT22;23184;51.902;12.836;2023-04-24T05:03:58;10.50;99.90
37300;DHT22;23184;51.902;12.836;2023-04-24T05:06:23;10.60;99.90
37300;DHT22;23184;51.902;12.836;2023-04-24T05:08:49;10.60;99.90
37300;DHT22;23184;51.902;12.836;2023-04-24T05:11:15;10.60;99.90
37300;DHT22;23184;51.902;12.836;2023-04-24T05:13:40;10.60;99.90
37300;DHT22;23184;51.902;12.836;2023-04-24T05:16:06;10.60;99.90
37300;DHT22;23184;51.902;12.836;2023-04-24T05:18:32;10.60;99.90
37300;DHT22;23184;51.902;12.836;2023-04-24T05:20:57;10.60;99.90
37300;DHT22;23184;51.902;12.836;2023-04-24T05:23:23;10.70;99.90
37300;DHT22;23184;51.902;12.836;2023-04-24T05:25:48;10.70;99.90
37300;DHT22;23184;51.902;12.836;2023-04-24T05:28:14;10.80;99.90
37300;DHT22;23184;51.902;12.836;2023-04-24T05:30:40;10.80;99.90
37300;DHT22;23184;51.902;12.836;2023-04-24T05:33:06;10.90;99.90
37300;DHT22;23184;51.902;12.836;2023-04-24T05:35:31;11.00;99.90
37300;DHT22;23184;51.902;12.836;2023-04-24T05:37:57;11.10;99.90
37300;DHT22;23184;51.902;12.836;2023-04-24T05:40:22;11.10;99.90
37300;DHT22;23184;51.902;12.836;2023-04-24T05:42:48;11.20;99.90
37300;DHT22;23184;51.902;12.836;2023-04-24T05:45:13;11.20;99.90
37300;DHT22;23184;51.902;12.836;2023-04-24T05:47:42;11.30;99.90
37300;DHT22;23184;51.902;12.836;2023-04-24T05:50:09;11.50;99.90
37300;DHT22;23184;51.902;12.836;2023-04-24T05:52:35;11.60;99.90
37300;DHT22;23184;51.902;12.836;2023-04-24T05:55:00;11.60;99.90
37300;DHT22;23184;51.902;12.836;2023-04-24T05:57:26;11.80;99.90
37300;DHT22;23184;51.902;12.836;2023-04-24T05:59:51;11.90;99.90
37300;DHT22;23184;51.902;12.836;2023-04-24T06:02:17;12.00;99.90
37300;DHT22;23184;51.902;12.836;2023-04-24T06:04:42;12.00;99.90
37300;DHT22;23184;51.902;12.836;2023-04-24T06:07:10;12.00;99.90
37300;DHT22;23184;51.902;12.836;2023-04-24T06:09:36;12.10;99.90
37300;DHT22;23184;51.902;12.836;2023-04-24T06:12:01;12.00;99.90
37300;DHT22;23184;51.902;12.836;2023-04-24T06:14:27;12.00;99.90
37300;DHT22;23184;51.902;12.836;2023-04-24T06:16:53;12.10;99.90
37300;DHT22;23184;51.902;12.836;2023-04-24T06:19:18;12.00;99.90
37300;DHT22;23184;51.902;12.836;2023-04-24T06:21:44;12.00;99.90
37300;DHT22;23184;51.902;12.836;2023-04-24T06:24:09;12.00;99.90
37300;DHT22;23184;51.902;12.836;2023-04-24T06:26:35;12.10;99.90
37300;DHT22;23184;51.902;12.836;2023-04-24T06:29:01;12.30;99.90
37300;DHT22;23184;51.902;12.836;2023-04-24T06:31:27;12.40;99.90
37300;DHT22;23184;51.902;12.836;2023-04-24T06:33:52;12.50;99.90
37300;DHT22;23184;51.902;12.836;2023-04-24T06:36:18;12.80;99.90
37300;DHT22;23184;51.902;12.836;2023-04-24T06:38:43;13.30;99.90
37300;DHT22;23184;51.902;12.836;2023-04-24T06:41:10;13.40;99.90
37300;DHT22;23184;51.902;12.836;2023-04-24T06:43:35;13.50;99.90
37300;DHT22;23184;51.902;12.836;2023-04-24T06:46:01;13.80;99.90
37300;DHT22;23184;51.902;12.836;2023-04-24T06:48:28;13.80;99.90
37300;DHT22;23184;51.902;12.836;2023-04-24T06:50:54;14.20;99.90
37300;DHT22;23184;51.902;12.836;2023-04-24T06:53:19;14.00;99.90
37300;DHT22;23184;51.902;12.836;2023-04-24T06:55:45;13.90;99.90
37300;DHT22;23184;51.902;12.836;2023-04-24T06:58:11;14.20;99.90
37300;DHT22;23184;51.902;12.836;2023-04-24T07:00:37;14.30;99.90
37300;DHT22;23184;51.902;12.836;2023-04-24T07:03:03;14.20;99.90
37300;DHT22;23184;51.902;12.836;2023-04-24T07:05:30;14.30;99.90
37300;DHT22;23184;51.902;12.836;2023-04-24T07:07:56;14.50;99.90
37300;DHT22;23184;51.902;12.836;2023-04-24T07:10:23;15.10;99.90
37300;DHT22;23184;51.902;12.836;2023-04-24T07:12:49;15.20;99.90
37300;DHT22;23184;51.902;12.836;2023-04-24T07:15:15;15.10;99.90
37300;DHT22;23184;51.902;12.836;2023-04-24T07:17:41;15.00;99.90
37300;DHT22;23184;51.902;12.836;2023-04-24T07:20:10;14.60;99.90
37300;DHT22;23184;51.902;12.836;2023-04-24T07:22:37;14.60;99.90
37300;DHT22;23184;51.902;12.836;2023-04-24T07:25:03;14.70;99.90
37300;DHT22;23184;51.902;12.836;2023-04-24T07:27:28;14.70;99.90
37300;DHT22;23184;51.902;12.836;2023-04-24T07:29:54;14.50;99.90
37300;DHT22;23184;51.902;12.836;2023-04-24T07:32:19;14.40;99.90
37300;DHT22;23184;51.902;12.836;2023-04-24T07:34:45;14.20;99.90
37300;DHT22;23184;51.902;12.836;2023-04-24T07:37:11;14.00;99.90
37300;DHT22;23184;51.902;12.836;2023-04-24T07:39:36;14.10;99.90
37300;DHT22;23184;51.902;12.836;2023-04-24T07:42:02;14.20;99.90
37300;DHT22;23184;51.902;12.836;2023-04-24T07:44:27;14.10;99.90
37300;DHT22;23184;51.902;12.836;2023-04-24T07:46:53;14.00;99.90
37300;DHT22;23184;51.902;12.836;2023-04-24T07:49:19;14.00;99.90
37300;DHT22;23184;51.902;12.836;2023-04-24T07:51:45;14.00;99.90
37300;DHT22;23184;51.902;12.836;2023-04-24T07:54:10;14.00;99.90
37300;DHT22;23184;51.902;12.836;2023-04-24T07:56:36;14.00;99.90
37300;DHT22;23184;51.902;12.836;2023-04-24T07:59:04;14.00;99.90
37300;DHT22;23184;51.902;12.836;2023-04-24T08:01:30;14.00;99.90
37300;DHT22;23184;51.902;12.836;2023-04-24T08:03:55;14.10;99.90
37300;DHT22;23184;51.902;12.836;2023-04-24T08:06:21;14.20;99.90
37300;DHT22;23184;51.902;12.836;2023-04-24T08:08:47;14.10;99.90
37300;DHT22;23184;51.902;12.836;2023-04-24T08:11:13;14.30;99.90
37300;DHT22;23184;51.902;12.836;2023-04-24T08:13:38;14.30;99.90
37300;DHT22;23184;51.902;12.836;2023-04-24T08:16:04;14.10;99.90
37300;DHT22;23184;51.902;12.836;2023-04-24T08:18:29;14.10;99.90
37300;DHT22;23184;51.902;12.836;2023-04-24T08:20:55;14.00;99.90
37300;DHT22;23184;51.902;12.836;2023-04-24T08:23:21;13.90;99.90
37300;DHT22;23184;51.902;12.836;2023-04-24T08:25:47;14.00;99.90
37300;DHT22;23184;51.902;12.836;2023-04-24T08:28:13;14.00;99.90
37300;DHT22;23184;51.902;12.836;2023-04-24T08:30:45;14.10;99.90
37300;DHT22;23184;51.902;12.836;2023-04-24T08:33:10;14.10;99.90
37300;DHT22;23184;51.902;12.836;2023-04-24T08:35:36;14.20;99.90
37300;DHT22;23184;51.902;12.836;2023-04-24T08:38:02;14.40;99.90
37300;DHT22;23184;51.902;12.836;2023-04-24T08:40:28;14.50;99.90
37300;DHT22;23184;51.902;12.836;2023-04-24T08:42:55;14.60;99.90
37300;DHT22;23184;51.902;12.836;2023-04-24T08:45:23;14.80;99.90
37300;DHT22;23184;51.902;12.836;2023-04-24T08:47:50;15.20;99.90
37300;DHT22;23184;51.902;12.836;2023-04-24T08:50:17;15.50;99.90
37300;DHT22;23184;51.902;12.836;2023-04-24T08:52:42;15.30;99.90
37300;DHT22;23184;51.902;12.836;2023-04-24T08:55:08;15.10;99.90
37300;DHT22;23184;51.902;12.836;2023-04-24T08:57:34;15.10;99.90
37300;DHT22;23184;51.902;12.836;2023-04-24T09:00:01;15.20;99.90
37300;DHT22;23184;51.902;12.836;2023-04-24T09:02:27;15.40;99.90
37300;DHT22;23184;51.902;12.836;2023-04-24T09:04:55;15.30;99.90
37300;DHT22;23184;51.902;12.836;2023-04-24T09:07:22;15.50;99.90
37300;DHT22;23184;51.902;12.836;2023-04-24T09:09:50;15.50;99.90
37300;DHT22;23184;51.902;12.836;2023-04-24T09:12:16;15.50;99.90
37300;DHT22;23184;51.902;12.836;2023-04-24T09:14:42;15.50;99.90
37300;DHT22;23184;51.902;12.836;2023-04-24T09:17:10;15.40;99.90
37300;DHT22;23184;51.902;12.836;2023-04-24T09:19:36;15.60;99.90
37300;DHT22;23184;51.902;12.836;2023-04-24T09:22:05;15.40;99.90
37300;DHT22;23184;51.902;12.836;2023-04-24T09:24:31;15.70;99.90
37300;DHT22;23184;51.902;12.836;2023-04-24T09:26:58;15.60;99.90
37300;DHT22;23184;51.902;12.836;2023-04-24T09:29:24;15.60;99.90
37300;DHT22;23184;51.902;12.836;2023-04-24T09:31:50;16.10;99.90
37300;DHT22;23184;51.902;12.836;2023-04-24T09:34:21;16.10;99.90
37300;DHT22;23184;51.902;12.836;2023-04-24T09:36:48;16.50;99.90
37300;DHT22;23184;51.902;12.836;2023-04-24T09:39:15;16.40;99.90
37300;DHT22;23184;51.902;12.836;2023-04-24T09:41:49;15.50;99.90
37300;DHT22;23184;51.902;12.836;2023-04-24T09:44:19;15.00;99.90
37300;DHT22;23184;51.902;12.836;2023-04-24T09:46:53;14.70;99.90
37300;DHT22;23184;51.902;12.836;2023-04-24T09:49:30;14.60;99.90
37300;DHT22;23184;51.902;12.836;2023-04-24T09:52:09;14.40;99.90
37300;DHT22;23184;51.902;12.836;2023-04-24T09:54:35;14.40;99.90
37300;DHT22;23184;51.902;12.836;2023-04-24T09:57:02;14.30;99.90
37300;DHT22;23184;51.902;12.836;2023-04-24T09:59:27;14.30;99.90
37300;DHT22;23184;51.902;12.836;2023-04-24T10:01:54;14.40;99.90
37300;DHT22;23184;51.902;12.836;2023-04-24T10:04:25;14.30;99.90
37300;DHT22;23184;51.902;12.836;2023-04-24T10:06:53;14.40;99.90
37300;DHT22;23184;51.902;12.836;2023-04-24T10:09:21;14.70;99.90
37300;DHT22;23184;51.902;12.836;2023-04-24T10:11:48;15.60;99.90
37300;DHT22;23184;51.902;12.836;2023-04-24T10:14:15;16.00;99.90
37300;DHT22;23184;51.902;12.836;2023-04-24T10:16:42;16.00;99.90
37300;DHT22;23184;51.902;12.836;2023-04-24T10:19:09;16.20;99.90
37300;DHT22;23184;51.902;12.836;2023-04-24T10:21:35;15.60;99.90
37300;DHT22;23184;51.902;12.836;2023-04-24T10:24:04;15.30;99.90
37300;DHT22;23184;51.902;12.836;2023-04-24T10:26:32;15.10;99.90
37300;DHT22;23184;51.902;12.836;2023-04-24T10:28:58;15.10;99.90
37300;DHT22;23184;51.902;12.836;2023-04-24T10:31:24;15.00;99.90
37300;DHT22;23184;51.902;12.836;2023-04-24T10:33:51;14.90;99.90
37300;DHT22;23184;51.902;12.836;2023-04-24T10:36:17;14.70;99.90
37300;DHT22;23184;51.902;12.836;2023-04-24T10:38:45;14.70;99.90
37300;DHT22;23184;51.902;12.836;2023-04-24T10:41:13;14.70;99.90
37300;DHT22;23184;51.902;12.836;2023-04-24T10:43:45;15.00;99.90
37300;DHT22;23184;51.902;12.836;2023-04-24T10:46:10;15.20;99.90
37300;DHT22;23184;51.902;12.836;2023-04-24T10:48:42;15.70;99.90
37300;DHT22;23184;51.902;12.836;2023-04-24T10:51:11;15.60;99.90
37300;DHT22;23184;51.902;12.836;2023-04-24T10:53:38;15.40;99.90
37300;DHT22;23184;51.902;12.836;2023-04-24T10:56:05;15.40;99.90
37300;DHT22;23184;51.902;12.836;2023-04-24T10:58:41;15.20;99.90
37300;DHT22;23184;51.902;12.836;2023-04-24T11:01:26;15.20;99.90
37300;DHT22;23184;51.902;12.836;2023-04-24T11:03:57;15.20;99.90
37300;DHT22;23184;51.902;12.836;2023-04-24T11:06:33;15.30;99.90
37300;DHT22;23184;51.902;12.836;2023-04-24T11:09:09;15.50;99.90
37300;DHT22;23184;51.902;12.836;2023-04-24T11:11:37;15.30;99.90
37300;DHT22;23184;51.902;12.836;2023-04-24T11:14:05;15.40;99.90
37300;DHT22;23184;51.902;12.836;2023-04-24T11:16:53;15.40;99.90
37300;DHT22;23184;51.902;12.836;2023-04-24T11:19:24;15.80;99.90
37300;DHT22;23184;51.902;12.836;2023-04-24T11:21:58;15.60;99.90
37300;DHT22;23184;51.902;12.836;2023-04-24T11:24:33;15.40;99.90
37300;DHT22;23184;51.902;12.836;2023-04-24T11:37:43;17.00;99.00
37300;DHT22;23184;51.902;12.836;2023-04-24T11:40:12;17.10;98.20
37300;DHT22;23184;51.902;12.836;2023-04-24T11:42:43;16.30;99.90
37300;DHT22;23184;51.902;12.836;2023-04-24T11:47:38;15.60;99.90
37300;DHT22;23184;51.902;12.836;2023-04-24T11:50:06;15.30;99.90
37300;DHT22;23184;51.902;12.836;2023-04-24T11:52:33;15.90;99.90
37300;DHT22;23184;51.902;12.836;2023-04-24T11:55:01;16.60;99.90
37300;DHT22;23184;51.902;12.836;2023-04-24T11:57:27;16.60;98.60
37300;DHT22;23184;51.902;12.836;2023-04-24T11:59:59;17.30;99.00
37300;DHT22;23184;51.902;12.836;2023-04-24T12:02:25;17.40;99.90
37300;DHT22;23184;51.902;12.836;2023-04-24T12:04:55;17.40;99.80
37300;DHT22;23184;51.902;12.836;2023-04-24T12:07:22;16.80;96.20
37300;DHT22;23184;51.902;12.836;2023-04-24T12:09:58;15.80;99.90
37300;DHT22;23184;51.902;12.836;2023-04-24T12:12:27;15.70;99.90
37300;DHT22;23184;51.902;12.836;2023-04-24T12:14:55;15.80;99.40
37300;DHT22;23184;51.902;12.836;2023-04-24T12:17:31;16.50;99.90
37300;DHT22;23184;51.902;12.836;2023-04-24T12:20:07;17.50;99.80
37300;DHT22;23184;51.902;12.836;2023-04-24T12:22:51;17.80;95.90
37300;DHT22;23184;51.902;12.836;2023-04-24T12:25:19;18.30;93.30
37300;DHT22;23184;51.902;12.836;2023-04-24T12:27:46;18.30;91.20
37300;DHT22;23184;51.902;12.836;2023-04-24T12:30:16;17.90;95.20
37300;DHT22;23184;51.902;12.836;2023-04-24T12:32:47;17.90;96.50
37300;DHT22;23184;51.902;12.836;2023-04-24T12:35:14;18.00;90.00
37300;DHT22;23184;51.902;12.836;2023-04-24T12:37:43;18.20;90.90
37300;DHT22;23184;51.902;12.836;2023-04-24T12:40:10;17.30;89.50
37300;DHT22;23184;51.902;12.836;2023-04-24T12:42:43;17.50;93.40
37300;DHT22;23184;51.902;12.836;2023-04-24T12:45:09;17.40;93.40
37300;DHT22;23184;51.902;12.836;2023-04-24T12:47:35;18.60;86.80
37300;DHT22;23184;51.902;12.836;2023-04-24T12:50:02;19.40;81.30
37300;DHT22;23184;51.902;12.836;2023-04-24T12:52:29;19.30;85.40
37300;DHT22;23184;51.902;12.836;2023-04-24T12:54:57;19.00;85.10
37300;DHT22;23184;51.902;12.836;2023-04-24T12:57:24;18.60;85.10
37300;DHT22;23184;51.902;12.836;2023-04-24T12:59:54;18.10;85.40
37300;DHT22;23184;51.902;12.836;2023-04-24T13:02:20;16.90;90.60
37300;DHT22;23184;51.902;12.836;2023-04-24T13:04:47;17.10;88.80
37300;DHT22;23184;51.902;12.836;2023-04-24T13:07:13;17.00;92.10
37300;DHT22;23184;51.902;12.836;2023-04-24T13:09:40;17.80;89.40
37300;DHT22;23184;51.902;12.836;2023-04-24T13:12:06;18.00;86.00
37300;DHT22;23184;51.902;12.836;2023-04-24T13:14:32;17.20;81.80
37300;DHT22;23184;51.902;12.836;2023-04-24T13:16:58;16.50;86.00
37300;DHT22;23184;51.902;12.836;2023-04-24T13:19:25;16.20;90.90
37300;DHT22;23184;51.902;12.836;2023-04-24T13:21:55;16.20;89.70
37300;DHT22;23184;51.902;12.836;2023-04-24T13:24:22;17.10;89.80
37300;DHT22;23184;51.902;12.836;2023-04-24T13:26:50;17.30;88.20
37300;DHT22;23184;51.902;12.836;2023-04-24T13:29:15;17.50;91.30
37300;DHT22;23184;51.902;12.836;2023-04-24T13:31:41;17.80;89.90
37300;DHT22;23184;51.902;12.836;2023-04-24T13:34:06;17.30;85.50
37300;DHT22;23184;51.902;12.836;2023-04-24T13:36:32;17.60;90.20
37300;DHT22;23184;51.902;12.836;2023-04-24T13:38:58;17.70;87.40
37300;DHT22;23184;51.902;12.836;2023-04-24T13:41:23;17.40;86.90
37300;DHT22;23184;51.902;12.836;2023-04-24T13:43:49;17.10;85.50
37300;DHT22;23184;51.902;12.836;2023-04-24T13:46:15;16.80;86.60
37300;DHT22;23184;51.902;12.836;2023-04-24T13:48:41;17.10;85.80
37300;DHT22;23184;51.902;12.836;2023-04-24T13:51:06;16.30;86.30
37300;DHT22;23184;51.902;12.836;2023-04-24T13:53:32;16.40;90.00
37300;DHT22;23184;51.902;12.836;2023-04-24T13:56:01;16.80;89.70
37300;DHT22;23184;51.902;12.836;2023-04-24T13:58:27;16.10;89.80
37300;DHT22;23184;51.902;12.836;2023-04-24T14:00:52;15.40;89.70
37300;DHT22;23184;51.902;12.836;2023-04-24T14:03:18;15.20;88.50
37300;DHT22;23184;51.902;12.836;2023-04-24T14:05:43;15.30;92.00
37300;DHT22;23184;51.902;12.836;2023-04-24T14:08:09;15.30;91.30
37300;DHT22;23184;51.902;12.836;2023-04-24T14:10:34;15.60;93.20
37300;DHT22;23184;51.902;12.836;2023-04-24T14:13:00;15.60;91.40
37300;DHT22;23184;51.902;12.836;2023-04-24T14:15:26;15.40;91.70
37300;DHT22;23184;51.902;12.836;2023-04-24T14:17:51;15.20;93.00
37300;DHT22;23184;51.902;12.836;2023-04-24T14:20:17;15.10;91.70
37300;DHT22;23184;51.902;12.836;2023-04-24T14:22:42;15.00;93.70
37300;DHT22;23184;51.902;12.836;2023-04-24T14:25:08;15.00;92.50
37300;DHT22;23184;51.902;12.836;2023-04-24T14:27:34;14.90;92.10
37300;DHT22;23184;51.902;12.836;2023-04-24T14:30:00;14.80;93.30
37300;DHT22;23184;51.902;12.836;2023-04-24T14:32:25;14.70;94.90
37300;DHT22;23184;51.902;12.836;2023-04-24T14:34:51;14.80;96.00
37300;DHT22;23184;51.902;12.836;2023-04-24T14:37:16;14.80;95.40
37300;DHT22;23184;51.902;12.836;2023-04-24T14:39:42;14.90;96.20
37300;DHT22;23184;51.902;12.836;2023-04-24T14:42:07;15.00;95.60
37300;DHT22;23184;51.902;12.836;2023-04-24T14:44:33;15.10;94.80
37300;DHT22;23184;51.902;12.836;2023-04-24T14:46:59;15.20;99.70
37300;DHT22;23184;51.902;12.836;2023-04-24T14:49:25;15.30;95.70
37300;DHT22;23184;51.902;12.836;2023-04-24T14:51:51;15.30;96.20
37300;DHT22;23184;51.902;12.836;2023-04-24T14:54:16;15.10;94.90
37300;DHT22;23184;51.902;12.836;2023-04-24T14:56:42;15.00;99.90
37300;DHT22;23184;51.902;12.836;2023-04-24T14:59:09;14.80;97.10
37300;DHT22;23184;51.902;12.836;2023-04-24T15:01:35;14.80;99.90
37300;DHT22;23184;51.902;12.836;2023-04-24T15:04:00;14.60;99.90
37300;DHT22;23184;51.902;12.836;2023-04-24T15:06:26;14.60;99.90
37300;DHT22;23184;51.902;12.836;2023-04-24T15:08:51;14.60;99.90
37300;DHT22;23184;51.902;12.836;2023-04-24T15:11:17;14.40;99.90
37300;DHT22;23184;51.902;12.836;2023-04-24T15:13:43;14.50;99.90
37300;DHT22;23184;51.902;12.836;2023-04-24T15:16:10;14.50;99.90
37300;DHT22;23184;51.902;12.836;2023-04-24T15:18:35;14.50;99.90
37300;DHT22;23184;51.902;12.836;2023-04-24T15:21:01;14.60;99.90
37300;DHT22;23184;51.902;12.836;2023-04-24T15:23:26;14.60;99.90
37300;DHT22;23184;51.902;12.836;2023-04-24T15:25:52;14.50;99.90